Gillette, WY (82716)

3:39 PM MST on February 19, 2017 (GMT -0700)
Lakeland Hills | | Change Station

Elev 4580 ft 44.30 °N, 105.48 °W | Updated 9 seconds ago

Partly Cloudy
Partly Cloudy
56.3 °F
Feels Like 56.3 °F
N
26.2
Wind Variable Wind from SW
Gusts 38.5 mph

Today
High -- | Low -- °F
--% Chance of Precip.
Yesterday
High -- | Low -- °F
Precip. -- in
Pressure 29.39 in
Visibility 10.0 miles
Clouds Few 12000 ft
Dew Point 35 °F
Humidity 45%
Rainfall 0.00 in
Snow Depth Not available.
6:55 AM 5:37 PM
Last Quarter, 39% visible
METAR KGCC 192153Z AUTO 22023G30KT 10SM FEW120 15/M01 A2946 RMK AO2 PK WND 22030/2151 SLP953 T01501011 $
Pressure 29.39 in
Visibility 10.0 miles
Clouds Few 12000 ft
Dew Point 35 °F
Humidity 45%
Rainfall 0.00 in
Snow Depth Not available.
6:55 AM 5:37 PM
Last Quarter, 39% visible
METAR KGCC 192153Z AUTO 22023G30KT 10SM FEW120 15/M01 A2946 RMK AO2 PK WND 22030/2151 SLP953 T01501011 $

Get Your Daily Forecast Email!

Thanks for signing up!

Be on the lookout for a verification email in your inbox.

You'll start receiving the daily forecast at 8 AM.

×

10-Day Weather Forecast

Almanac

Astronomy

Feb. 19, 2017 Rise Set
Actual Time
Civil Twilight
Nautical Twilight
Astronomical Twilight
Moon
Length of Visible Light
Length of Day
Tomorrow will be .
, % of the Moon is Illuminated

Today's Extremes

State Highs State Lows

Community

WunderPhotos

Upload Photos

1,962,540 photos uploaded!

WunderBlog® & News

Nearby

Air Quality

  Air Quality AQ Index Pollutant
Not available.

Snow Depth

Station Depth Elevation

Earthquake Activity

City Distance Mag. Time & Date
Minimum magnitude displayed is 2.5.

Coastal Water Temperatures

Place Temperature

Stations

Nearby Weather Stations

Station Location Temp. Windchill Dew Point Humidity Wind Precip. Elev Updated Type
                   

Watches & Warnings

There are currently no watches in effect.